Time;durP1;ratioP1;P1;durP2;ratioP2;P2;SDS_P1;SDS_P2;PMS_P1;PMS_P2;Temp;Humidity;BMP_temperature;BMP_pressure;BME280_temperature;BME280_humidity;BME280_pressure;Samples;Min_cycle;Max_cycle;Signal;HPM_P1;HPM_P2
2023/03/17 00:01:02;;;;;;;;;;;;;;;10.07;40.24;98944.28;5092283;28;20311;-83
2023/03/17 00:03:30;;;;;;;;;;;;;;;10.01;40.54;98949.06;5092201;28;19958;-82
2023/03/17 00:05:57;;;;;;;;;;;;;;;9.99;40.43;98938.75;5074819;28;19923;-83
2023/03/17 00:08:23;;;;;;;;;;;;;;;10.00;40.50;98944.81;5091264;28;19916;-84
2023/03/17 00:10:49;;;;;;;;;;;;;;;10.01;40.43;98954.28;5091314;28;20371;-82
2023/03/17 00:13:14;;;;;;;;;;;;;;;10.00;40.62;98952.66;5092287;28;19916;-84
2023/03/17 00:15:40;;;;;;;;;;;;;;;10.01;40.54;98956.91;5075847;28;19920;-84
2023/03/17 00:18:09;;;;;;;;;;;;;;;10.03;40.59;98952.44;5092638;28;19916;-84
2023/03/17 00:20:34;;;;;;;;;;;;;;;10.02;40.66;98942.94;5090750;28;19945;-84
2023/03/17 00:23:03;;;;;;;;;;;;;;;10.01;40.49;98952.53;5091619;28;20019;-84
2023/03/17 00:25:32;;;;;;;;;;;;;;;10.01;40.70;98956.91;5090973;28;19927;-85
2023/03/17 00:27:58;;;;;;;;;;;;;;;10.02;40.61;98963.78;5091433;28;20004;-80
2023/03/17 00:30:23;;;;;;;;;;;;;;;10.03;40.57;98971.50;5074122;28;19917;-84
2023/03/17 00:32:50;;;;;;;;;;;;;;;10.04;40.58;98974.94;5091401;28;19959;-83
2023/03/17 00:35:22;;;;;;;;;;;;;;;10.01;40.63;98981.22;5092407;28;19916;-87
2023/03/17 00:37:48;;;;;;;;;;;;;;;10.00;40.76;98983.94;5091431;28;19923;-88
2023/03/17 00:40:14;;;;;;;;;;;;;;;10.01;40.79;98981.22;5091709;28;19917;-88
2023/03/17 00:42:40;;;;;;;;;;;;;;;10.00;40.79;98984.75;5092502;28;19954;-84
2023/03/17 00:45:06;;;;;;;;;;;;;;;9.98;40.83;98986.66;5073877;28;20025;-86
2023/03/17 00:47:31;;;;;;;;;;;;;;;9.97;40.85;98979.75;5092728;28;19963;-90
2023/03/17 00:49:57;;;;;;;;;;;;;;;9.96;40.83;98986.75;5092420;28;19920;-91
2023/03/17 00:52:22;;;;;;;;;;;;;;;9.93;40.89;98989.59;5092123;28;20339;-90
2023/03/17 00:54:48;;;;;;;;;;;;;;;9.93;41.00;98986.97;5091830;28;20303;-91
2023/03/17 00:57:13;;;;;;;;;;;;;;;9.94;41.00;98983.41;5091961;28;19971;-89
2023/03/17 00:59:39;;;;;;;;;;;;;;;9.95;41.08;98981.66;5092152;28;19920;-90
2023/03/17 01:02:05;;;;;;;;;;;;;;;9.98;41.06;98988.41;5093413;28;19916;-91
2023/03/17 01:04:32;;;;;;;;;;;;;;;9.99;41.04;98995.31;5092233;28;19943;-90
2023/03/17 01:06:58;;;;;;;;;;;;;;;9.98;41.18;98985.81;5093089;28;19924;-91
2023/03/17 01:09:24;;;;;;;;;;;;;;;9.95;41.12;98989.47;5091526;28;19920;-90
2023/03/17 01:11:49;;;;;;;;;;;;;;;9.96;41.12;98997.19;5074120;28;19924;-86
2023/03/17 01:14:15;;;;;;;;;;;;;;;9.98;41.17;98997.09;5090872;28;19916;-87
2023/03/17 01:16:41;;;;;;;;;;;;;;;9.97;40.74;99005.84;5091205;28;19939;-88
2023/03/17 01:19:06;;;;;;;;;;;;;;;9.98;41.17;99006.66;5074809;28;19924;-89
2023/03/17 01:21:31;;;;;;;;;;;;;;;9.96;41.06;99006.78;5093178;28;19916;-89
2023/03/17 01:23:57;;;;;;;;;;;;;;;9.94;41.30;99013.88;5092856;28;19973;-91
2023/03/17 01:26:22;;;;;;;;;;;;;;;9.94;41.32;99014.69;5091399;28;19970;-89
2023/03/17 01:28:47;;;;;;;;;;;;;;;9.93;41.27;99017.41;5073792;28;19920;-91
2023/03/17 01:31:13;;;;;;;;;;;;;;;9.90;41.37;99013.25;5092271;28;19973;-86
2023/03/17 01:33:38;;;;;;;;;;;;;;;9.89;41.52;99019.41;5092808;28;19916;-86
2023/03/17 01:36:04;;;;;;;;;;;;;;;9.89;41.46;99008.97;5073964;28;19916;-87
2023/03/17 01:38:29;;;;;;;;;;;;;;;9.87;41.55;99018.69;5096173;28;19951;-90
2023/03/17 01:40:54;;;;;;;;;;;;;;;9.86;41.59;99019.63;5094814;28;20419;-88
2023/03/17 01:43:20;;;;;;;;;;;;;;;9.85;41.56;99017.97;5094634;28;19916;-87
2023/03/17 01:46:05;;;;;;;;;;;;;;;9.85;41.43;99017.97;5077646;28;19920;-88
2023/03/17 01:48:31;;;;;;;;;;;;;;;9.83;41.55;99021.59;5096073;28;19923;-89
2023/03/17 01:50:56;;;;;;;;;;;;;;;9.83;41.20;99021.59;5077823;28;20431;-89
2023/03/17 01:53:22;;;;;;;;;;;;;;;9.80;41.56;99020.03;5096258;28;19923;-88
2023/03/17 01:55:48;;;;;;;;;;;;;;;9.78;41.60;99029.75;5094385;28;19922;-86
2023/03/17 01:58:13;;;;;;;;;;;;;;;9.74;41.65;99020.44;5077724;28;19920;-88
2023/03/17 02:00:39;;;;;;;;;;;;;;;9.73;41.54;99016.19;5094635;28;19916;-89
2023/03/17 02:03:04;;;;;;;;;;;;;;;9.70;41.66;99016.41;5077630;28;19916;-88
2023/03/17 02:05:31;;;;;;;;;;;;;;;9.69;41.71;99025.16;5095905;28;19926;-89
2023/03/17 02:07:56;;;;;;;;;;;;;;;9.63;41.71;99021.22;5097483;28;19955;-88
2023/03/17 02:10:23;;;;;;;;;;;;;;;9.59;41.62;99017.94;5096180;28;19916;-87
2023/03/17 02:12:52;;;;;;;;;;;;;;;9.57;41.71;99019.84;5093742;28;19916;-90
2023/03/17 02:15:17;;;;;;;;;;;;;;;9.56;41.92;99025.16;5095972;28;19973;-90
2023/03/17 02:17:42;;;;;;;;;;;;;;;9.55;41.71;99024.34;5095347;28;19916;-90
2023/03/17 02:20:28;;;;;;;;;;;;;;;9.51;41.96;99020.25;5096310;28;19916;-90
2023/03/17 02:22:54;;;;;;;;;;;;;;;9.51;41.81;99022.84;5015055;28;19917;-90
2023/03/17 02:25:20;;;;;;;;;;;;;;;9.49;41.73;99023.88;5006418;28;20436;-90
2023/03/17 02:27:46;;;;;;;;;;;;;;;9.48;41.76;99030.88;5027687;28;19980;-88
2023/03/17 02:30:15;;;;;;;;;;;;;;;9.46;41.79;99039.75;5006532;28;19925;-90
2023/03/17 02:32:40;;;;;;;;;;;;;;;9.45;41.91;99044.09;4997489;28;19924;-91
2023/03/17 02:35:06;;;;;;;;;;;;;;;9.44;41.68;99047.69;4981507;28;20020;-89
2023/03/17 02:37:31;;;;;;;;;;;;;;;9.42;41.92;99041.72;5015713;28;19917;-87
2023/03/17 02:39:57;;;;;;;;;;;;;;;9.39;41.98;99036.69;4998050;28;19918;-85
2023/03/17 02:42:22;;;;;;;;;;;;;;;9.39;42.04;99047.13;4996858;28;20447;-88
2023/03/17 02:44:48;;;;;;;;;;;;;;;9.37;42.08;99057.66;5013818;28;19918;-88
2023/03/17 02:47:13;;;;;;;;;;;;;;;9.36;41.93;99049.94;5012491;28;19976;-89
2023/03/17 02:49:39;;;;;;;;;;;;;;;9.25;42.17;99053.28;4997243;28;19928;-89
2023/03/17 02:52:04;;;;;;;;;;;;;;;9.22;42.29;99061.28;4996927;28;19967;-85
2023/03/17 02:54:30;;;;;;;;;;;;;;;9.16;42.46;99054.69;4996366;28;19925;-85
2023/03/17 02:56:55;;;;;;;;;;;;;;;9.17;42.14;99056.38;4997204;28;19918;-86
2023/03/17 02:59:21;;;;;;;;;;;;;;;9.15;42.41;99058.22;5033357;28;19920;-87
2023/03/17 03:01:47;;;;;;;;;;;;;;;9.14;42.40;99056.56;5095058;28;20379;-87
2023/03/17 03:04:12;;;;;;;;;;;;;;;9.16;42.36;99061.69;5093903;28;19943;-86
2023/03/17 03:06:38;;;;;;;;;;;;;;;9.16;42.06;99054.69;5095223;28;19965;-84
2023/03/17 03:09:04;;;;;;;;;;;;;;;9.13;42.39;99065.31;5076974;28;19941;-87
2023/03/17 03:11:29;;;;;;;;;;;;;;;9.15;42.32;99066.03;5077121;28;20003;-89
2023/03/17 03:13:55;;;;;;;;;;;;;;;9.16;42.37;99064.28;5093936;28;19916;-87
2023/03/17 03:16:20;;;;;;;;;;;;;;;9.16;42.06;99075.53;5093931;28;20434;-86
2023/03/17 03:18:46;;;;;;;;;;;;;;;9.17;42.39;99071.13;5093946;28;19916;-86
2023/03/17 03:21:11;;;;;;;;;;;;;;;9.16;42.30;99066.88;5076319;28;20390;-89
2023/03/17 03:23:36;;;;;;;;;;;;;;;9.15;42.08;99073.03;5076346;28;19916;-90
2023/03/17 03:26:02;;;;;;;;;;;;;;;9.15;41.97;99079.06;5093756;28;19916;-89
2023/03/17 03:28:27;;;;;;;;;;;;;;;9.16;42.32;99072.94;5076016;28;19985;-90
2023/03/17 03:30:53;;;;;;;;;;;;;;;9.17;42.20;99076.34;5094622;28;19916;-87
2023/03/17 03:33:18;;;;;;;;;;;;;;;9.13;41.88;99082.72;5094922;28;19923;-90
2023/03/17 03:35:43;;;;;;;;;;;;;;;9.14;42.14;99076.56;5094437;28;19920;-89
2023/03/17 03:38:09;;;;;;;;;;;;;;;9.14;42.20;99082.63;5094062;28;19974;-89
2023/03/17 03:40:35;;;;;;;;;;;;;;;9.11;42.00;99089.78;5094481;28;20383;-90
2023/03/17 03:43:00;;;;;;;;;;;;;;;9.11;42.08;99084.56;5094565;28;19916;-90
2023/03/17 03:45:26;;;;;;;;;;;;;;;9.10;41.96;99088.13;5094958;28;19959;-91
2023/03/17 03:47:51;;;;;;;;;;;;;;;9.09;41.96;99092.47;5075592;28;19931;-91
2023/03/17 03:50:16;;;;;;;;;;;;;;;9.06;41.92;99095.28;5076331;28;19916;-90
2023/03/17 03:52:41;;;;;;;;;;;;;;;9.04;41.90;99091.94;5094172;28;19939;-92
2023/03/17 03:55:07;;;;;;;;;;;;;;;9.02;42.09;99089.44;5076596;28;19920;-90
2023/03/17 03:57:33;;;;;;;;;;;;;;;9.02;41.72;99096.41;5093165;28;20307;-91
2023/03/17 03:59:59;;;;;;;;;;;;;;;9.01;41.56;99099.94;5093824;28;20009;-92
2023/03/17 04:02:24;;;;;;;;;;;;;;;9.00;41.80;99098.31;5096455;28;19920;-85
2023/03/17 04:04:49;;;;;;;;;;;;;;;8.96;41.66;99102.84;5097300;28;19916;-87
2023/03/17 04:07:15;;;;;;;;;;;;;;;8.95;41.74;99105.53;5094161;28;20570;-90
2023/03/17 04:09:41;;;;;;;;;;;;;;;8.93;41.71;99097.84;5095823;28;20014;-87
2023/03/17 04:12:07;;;;;;;;;;;;;;;8.92;41.72;99113.53;5092626;28;20003;-87
2023/03/17 04:14:32;;;;;;;;;;;;;;;8.91;41.45;99115.31;5093954;28;20003;-88
2023/03/17 04:16:57;;;;;;;;;;;;;;;8.90;41.33;99125.84;5092350;28;20358;-86
2023/03/17 04:19:23;;;;;;;;;;;;;;;8.89;41.41;99122.41;5075624;28;20299;-87
2023/03/17 04:21:48;;;;;;;;;;;;;;;8.89;41.39;99135.44;5092281;28;20414;-89
2023/03/17 04:24:13;;;;;;;;;;;;;;;8.91;41.45;99136.16;5092439;28;19970;-89
2023/03/17 04:26:40;;;;;;;;;;;;;;;8.90;41.46;99138.84;5074430;28;20065;-90
2023/03/17 04:29:07;;;;;;;;;;;;;;;8.93;41.28;99149.06;5074080;28;19976;-89
2023/03/17 04:31:33;;;;;;;;;;;;;;;8.92;41.13;99144.78;5092677;28;19955;-88
2023/03/17 04:33:58;;;;;;;;;;;;;;;8.92;40.95;99144.78;5074912;28;19959;-86
2023/03/17 04:36:23;;;;;;;;;;;;;;;8.94;41.46;99150.75;5091597;28;19916;-88
2023/03/17 04:38:49;;;;;;;;;;;;;;;8.93;41.43;99154.28;5093325;28;19985;-88
2023/03/17 04:41:14;;;;;;;;;;;;;;;8.95;41.29;99161.06;5074983;28;19916;-87
2023/03/17 04:43:40;;;;;;;;;;;;;;;8.96;40.97;99156.69;5091651;28;19922;-89
2023/03/17 04:46:06;;;;;;;;;;;;;;;8.98;41.17;99158.28;5091675;28;20015;-85
2023/03/17 04:48:31;;;;;;;;;;;;;;;9.02;40.92;99151.94;5074161;28;19978;-82
2023/03/17 04:50:57;;;;;;;;;;;;;;;9.27;57.00;99163.41;5091328;28;19938;-81
2023/03/17 04:53:22;;;;;;;;;;;;;;;9.46;53.85;99175.25;5092780;28;19916;-82
2023/03/17 04:55:48;;;;;;;;;;;;;;;9.51;50.03;99178.41;5091418;28;19920;-79
2023/03/17 04:58:13;;;;;;;;;;;;;;;9.54;48.29;99176.41;5092022;28;19916;-76
2023/03/17 05:00:38;;;;;;;;;;;;;;;9.58;46.85;99180.50;5074768;28;19939;-81
2023/03/17 05:03:05;;;;;;;;;;;;;;;9.91;45.28;99171.38;5075557;28;19916;-82
2023/03/17 05:05:31;;;;;;;;;;;;;;;10.14;43.74;99172.44;5075568;28;19946;-79
2023/03/17 05:07:56;;;;;;;;;;;;;;;10.25;42.88;99176.94;5093120;28;20355;-83
2023/03/17 05:10:21;;;;;;;;;;;;;;;10.27;42.28;99188.09;5058574;28;19920;-80
2023/03/17 05:12:47;;;;;;;;;;;;;;;10.57;59.49;99184.38;5084062;28;19916;-78
2023/03/17 05:15:13;;;;;;;;;;;;;;;10.88;55.63;99189.22;5082864;28;20002;-86
2023/03/17 05:17:38;;;;;;;;;;;;;;;11.21;48.96;99192.06;5061797;28;20402;-86
2023/03/17 05:20:03;;;;;;;;;;;;;;;11.29;46.62;99195.91;5078345;28;19916;-86
2023/03/17 05:22:29;;;;;;;;;;;;;;;11.38;44.74;99196.06;5078532;28;19923;-85
2023/03/17 05:24:54;;;;;;;;;;;;;;;12.00;41.58;99194.22;5061313;28;19920;-85
2023/03/17 05:27:20;;;;;;;;;;;;;;;12.37;39.76;99196.66;5077595;28;19982;-86
2023/03/17 05:29:46;;;;;;;;;;;;;;;12.89;38.27;99204.03;5061527;28;19922;-89
2023/03/17 05:32:12;;;;;;;;;;;;;;;14.04;35.10;99207.91;5063799;28;19942;-86
2023/03/17 05:34:37;;;;;;;;;;;;;;;14.08;34.22;99201.44;5061616;28;20382;-85
2023/03/17 05:37:03;;;;;;;;;;;;;;;15.39;31.83;99207.81;5061778;28;19999;-87
2023/03/17 05:39:28;;;;;;;;;;;;;;;16.38;29.51;99199.75;5078942;28;19916;-87
2023/03/17 05:41:53;;;;;;;;;;;;;;;17.28;28.35;99202.69;5078343;28;20012;-85
2023/03/17 05:44:19;;;;;;;;;;;;;;;18.41;36.16;99204.81;5078058;28;19923;-89
2023/03/17 05:46:44;;;;;;;;;;;;;;;19.26;31.31;99204.88;5078325;28;19920;-84
2023/03/17 05:49:10;;;;;;;;;;;;;;;19.94;27.60;99202.16;5061513;28;19927;-91
2023/03/17 05:51:35;;;;;;;;;;;;;;;20.57;26.21;99203.22;5078104;28;19916;-84
2023/03/17 05:54:00;;;;;;;;;;;;;;;20.88;25.14;99211.28;5077918;28;20012;-82
2023/03/17 05:56:32;;;;;;;;;;;;;;;21.44;23.33;99207.69;5096458;28;19916;-78
2023/03/17 05:58:58;;;;;;;;;;;;;;;21.86;22.37;99207.25;5079003;28;19916;-78
2023/03/17 06:01:23;;;;;;;;;;;;;;;22.27;21.78;99213.22;5077883;28;20359;-79
2023/03/17 06:03:48;;;;;;;;;;;;;;;22.56;21.01;99218.56;5060479;28;19922;-79
2023/03/17 06:06:15;;;;;;;;;;;;;;;22.28;20.47;99225.47;5075866;28;20003;-78
2023/03/17 06:08:43;;;;;;;;;;;;;;;22.39;20.44;99228.56;5095304;28;19920;-77
2023/03/17 06:11:09;;;;;;;;;;;;;;;22.69;19.74;99228.59;5077980;28;20409;-79
2023/03/17 06:13:34;;;;;;;;;;;;;;;23.00;19.42;99240.06;5077629;28;19924;-79
2023/03/17 06:16:00;;;;;;;;;;;;;;;23.33;19.25;99247.66;5095549;28;19920;-78
2023/03/17 06:18:25;;;;;;;;;;;;;;;23.55;18.92;99240.53;5095345;28;20478;-78
2023/03/17 06:20:51;;;;;;;;;;;;;;;23.79;18.62;99249.97;5077281;28;19920;-78
2023/03/17 06:23:17;;;;;;;;;;;;;;;24.05;18.07;99251.25;5060064;28;20379;-81
2023/03/17 06:25:43;;;;;;;;;;;;;;;24.33;17.80;99246.78;5076756;28;19962;-79
2023/03/17 06:28:09;;;;;;;;;;;;;;;24.67;17.22;99244.34;5077213;28;19970;-81
2023/03/17 06:30:34;;;;;;;;;;;;;;;24.89;17.30;99242.41;5093824;28;19981;-80
2023/03/17 06:33:00;;;;;;;;;;;;;;;25.09;17.10;99250.53;5094561;28;19916;-78
2023/03/17 06:35:25;;;;;;;;;;;;;;;25.30;16.79;99249.63;5077073;28;19965;-80
2023/03/17 06:37:50;;;;;;;;;;;;;;;25.53;16.75;99248.47;5076895;28;20311;-79
2023/03/17 06:40:16;;;;;;;;;;;;;;;25.74;16.55;99248.28;5076775;28;20402;-78
2023/03/17 06:42:41;;;;;;;;;;;;;;;25.99;16.05;99255.75;5060099;28;20383;-80
2023/03/17 06:45:08;;;;;;;;;;;;;;;26.21;16.12;99250.22;5076844;28;19916;-79
2023/03/17 06:47:34;;;;;;;;;;;;;;;26.43;15.61;99257.00;5076758;28;19920;-80
2023/03/17 06:50:01;;;;;;;;;;;;;;;26.51;15.78;99253.28;5076957;28;20387;-80
2023/03/17 06:52:26;;;;;;;;;;;;;;;26.14;15.75;99261.75;5076500;28;20020;-80
2023/03/17 06:54:51;;;;;;;;;;;;;;;26.46;15.80;99248.53;5077216;28;20358;-80
2023/03/17 06:57:17;;;;;;;;;;;;;;;26.67;15.35;99246.69;5094760;28;19916;-78
2023/03/17 06:59:42;;;;;;;;;;;;;;;26.83;14.99;99248.91;5076644;28;20436;-79
2023/03/17 07:02:09;;;;;;;;;;;;;;;27.07;15.06;99244.72;5077901;28;19916;-78
2023/03/17 07:04:36;;;;;;;;;;;;;;;27.18;14.80;99235.16;5078546;28;20436;-80
2023/03/17 07:07:04;;;;;;;;;;;;;;;27.36;14.73;99249.78;5096501;28;20386;-77
2023/03/17 07:09:29;;;;;;;;;;;;;;;27.64;14.31;99259.31;5076863;28;19978;-79
2023/03/17 07:11:54;;;;;;;;;;;;;;;27.76;14.34;99260.25;5076594;28;20390;-79
2023/03/17 07:14:20;;;;;;;;;;;;;;;27.95;14.34;99263.88;5094368;28;19981;-80
2023/03/17 07:16:47;;;;;;;;;;;;;;;27.87;14.32;99264.94;5076130;28;19923;-78
2023/03/17 07:19:12;;;;;;;;;;;;;;;27.80;14.21;99258.81;5077025;28;19917;-78
2023/03/17 07:21:37;;;;;;;;;;;;;;;27.88;14.42;99261.22;5094339;28;19916;-79
2023/03/17 07:24:03;;;;;;;;;;;;;;;28.10;14.20;99267.06;5059560;28;19924;-79
2023/03/17 07:26:29;;;;;;;;;;;;;;;28.28;13.69;99260.91;5059051;28;20372;-78
2023/03/17 07:28:55;;;;;;;;;;;;;;;28.47;13.72;99248.34;5075924;28;20025;-78
2023/03/17 07:31:20;;;;;;;;;;;;;;;28.77;13.55;99265.66;5075873;28;20028;-79
2023/03/17 07:33:45;;;;;;;;;;;;;;;29.14;13.60;99271.00;5075429;28;19920;-79
2023/03/17 07:36:11;;;;;;;;;;;;;;;29.55;13.11;99262.22;5075714;28;20351;-80
2023/03/17 07:38:37;;;;;;;;;;;;;;;29.85;12.92;99260.59;5075173;28;19917;-79
2023/03/17 07:41:03;;;;;;;;;;;;;;;30.06;12.73;99256.53;5075837;28;20007;-80
2023/03/17 07:43:29;;;;;;;;;;;;;;;30.28;12.61;99254.09;5076103;28;19955;-81
2023/03/17 07:45:55;;;;;;;;;;;;;;;30.38;12.43;99258.91;5076162;28;19970;-82
2023/03/17 07:48:20;;;;;;;;;;;;;;;30.41;12.32;99263.84;5075689;28;20394;-79
2023/03/17 07:50:46;;;;;;;;;;;;;;;30.47;12.10;99247.59;5075465;28;19916;-81
2023/03/17 07:53:11;;;;;;;;;;;;;;;30.55;12.30;99253.66;5058966;28;20010;-80
2023/03/17 07:55:37;;;;;;;;;;;;;;;30.66;12.29;99244.75;5076055;28;19916;-80
2023/03/17 07:58:03;;;;;;;;;;;;;;;30.74;12.13;99240.88;5075732;28;19920;-79
2023/03/17 08:00:29;;;;;;;;;;;;;;;30.93;12.11;99255.00;5075346;28;19982;-80
2023/03/17 08:02:55;;;;;;;;;;;;;;;30.99;11.51;99244.13;5093591;28;19974;-80
2023/03/17 08:05:20;;;;;;;;;;;;;;;30.95;12.04;99247.53;5093806;28;19924;-82
2023/03/17 08:07:48;;;;;;;;;;;;;;;30.99;11.91;99248.69;5058722;28;19955;-84
2023/03/17 08:10:14;;;;;;;;;;;;;;;31.07;12.09;99242.13;5074610;28;19922;-81
2023/03/17 08:12:39;;;;;;;;;;;;;;;31.11;11.76;99249.50;5093771;28;20023;-82
2023/03/17 08:15:05;;;;;;;;;;;;;;;31.24;11.35;99255.66;5058825;28;19982;-81
2023/03/17 08:17:30;;;;;;;;;;;;;;;31.27;11.33;99250.59;5058763;28;20291;-82
2023/03/17 08:19:58;;;;;;;;;;;;;;;31.29;11.40;99247.66;5058862;28;20011;-83
2023/03/17 08:22:24;;;;;;;;;;;;;;;31.25;11.30;99262.69;5076052;28;19916;-81
2023/03/17 08:24:52;;;;;;;;;;;;;;;31.14;11.23;99262.50;5093301;28;19916;-82
2023/03/17 08:27:21;;;;;;;;;;;;;;;30.98;11.56;99266.75;5075964;28;19928;-82
2023/03/17 08:29:46;;;;;;;;;;;;;;;30.97;11.56;99277.78;5075295;28;19916;-80
2023/03/17 08:32:14;;;;;;;;;;;;;;;30.99;11.49;99270.25;5075027;28;19928;-82
2023/03/17 08:34:39;;;;;;;;;;;;;;;30.92;11.86;99281.16;5075070;28;20006;-80
2023/03/17 08:37:08;;;;;;;;;;;;;;;30.82;11.89;99276.38;5075099;28;20009;-81
2023/03/17 08:39:35;;;;;;;;;;;;;;;30.71;11.99;99284.44;5092950;28;20391;-80
2023/03/17 08:42:00;;;;;;;;;;;;;;;30.64;11.79;99277.31;5093196;28;19922;-81
2023/03/17 08:44:27;;;;;;;;;;;;;;;30.50;12.29;99275.91;5074881;28;20010;-82
2023/03/17 08:46:55;;;;;;;;;;;;;;;30.56;12.51;99277.66;5075078;28;19925;-81
2023/03/17 08:49:22;;;;;;;;;;;;;;;30.54;12.30;99282.47;5058868;28;19924;-80
2023/03/17 08:51:52;;;;;;;;;;;;;;;30.56;12.20;99280.34;5075149;28;19969;-81
2023/03/17 08:54:17;;;;;;;;;;;;;;;30.56;12.27;99284.94;5093211;28;20434;-81
2023/03/17 08:56:42;;;;;;;;;;;;;;;30.61;12.25;99290.44;5074846;28;20010;-81
2023/03/17 08:59:08;;;;;;;;;;;;;;;30.74;12.60;99282.13;5058232;28;19920;-80
2023/03/17 09:01:33;;;;;;;;;;;;;;;30.70;12.25;99283.63;5075221;28;19916;-82
2023/03/17 09:03:58;;;;;;;;;;;;;;;30.80;12.39;99289.25;5074963;28;20016;-81
2023/03/17 09:06:25;;;;;;;;;;;;;;;30.70;12.53;99280.13;5074779;28;19923;-81
2023/03/17 09:08:54;;;;;;;;;;;;;;;30.54;12.42;99285.19;5092815;28;19952;-80
2023/03/17 09:11:19;;;;;;;;;;;;;;;30.41;12.44;99285.38;5074960;28;19920;-80
2023/03/17 09:13:46;;;;;;;;;;;;;;;30.31;13.04;99291.31;5074795;28;19923;-81
2023/03/17 09:16:17;;;;;;;;;;;;;;;30.48;12.40;99292.31;5074096;28;20386;-81
2023/03/17 09:19:00;;;;;;;;;;;;;;;30.65;12.73;99292.44;5091471;28;19916;-81
2023/03/17 09:21:27;;;;;;;;;;;;;;;30.78;12.59;99291.34;5074280;28;19923;-83
2023/03/17 09:23:58;;;;;;;;;;;;;;;30.13;12.57;99293.06;5057736;28;20011;-82
2023/03/17 09:26:25;;;;;;;;;;;;;;;29.63;12.82;99289.88;5092220;28;19916;-81
2023/03/17 09:28:51;;;;;;;;;;;;;;;29.82;12.63;99282.59;5092346;28;19920;-83
2023/03/17 09:31:17;;;;;;;;;;;;;;;29.91;12.76;99282.03;5074662;28;20065;-84
2023/03/17 09:33:43;;;;;;;;;;;;;;;29.75;13.20;99286.16;5074551;28;20347;-82
2023/03/17 09:36:11;;;;;;;;;;;;;;;29.54;13.23;99276.75;5093939;28;19923;-81
2023/03/17 09:38:36;;;;;;;;;;;;;;;29.52;13.27;99280.69;5075739;28;20370;-80
2023/03/17 09:41:24;;;;;;;;;;;;;;;29.52;13.38;99273.44;5075403;28;19966;-79
2023/03/17 09:43:51;;;;;;;;;;;;;;;29.46;13.40;99285.13;5074928;28;19959;-81
2023/03/17 09:46:35;;;;;;;;;;;;;;;29.17;13.39;99286.69;5092615;28;20011;-81
2023/03/17 09:49:02;;;;;;;;;;;;;;;28.81;13.62;99282.97;5092713;28;20003;-80
2023/03/17 09:51:28;;;;;;;;;;;;;;;28.62;13.69;99274.91;5074969;28;19916;-81
2023/03/17 09:54:04;;;;;;;;;;;;;;;28.43;13.83;99283.91;5092577;28;20284;-81
2023/03/17 09:56:33;;;;;;;;;;;;;;;28.18;13.96;99271.34;5073669;28;19917;-80
2023/03/17 09:59:22;;;;;;;;;;;;;;;27.83;14.07;99290.53;5077301;28;19920;-81
2023/03/17 10:02:14;;;;;;;;;;;;;;;27.70;14.20;99277.22;5094692;28;20379;-79
2023/03/17 10:04:43;;;;;;;;;;;;;;;27.45;14.44;99280.63;5078373;28;19916;-81
2023/03/17 10:07:09;;;;;;;;;;;;;;;27.32;14.74;99267.31;5061357;28;20375;-80
2023/03/17 10:09:39;;;;;;;;;;;;;;;27.39;15.09;99278.81;5077511;28;19916;-80
2023/03/17 10:12:26;;;;;;;;;;;;;;;27.36;15.13;99272.03;5077262;28;20003;-79
2023/03/17 10:15:06;;;;;;;;;;;;;;;27.47;14.68;99275.91;5077753;28;20007;-82
2023/03/17 10:17:38;;;;;;;;;;;;;;;27.34;15.23;99286.69;5090282;28;19989;-82
2023/03/17 10:20:10;;;;;;;;;;;;;;;27.17;15.30;99273.72;5077407;28;20316;-81
2023/03/17 10:22:47;;;;;;;;;;;;;;;26.99;15.17;99270.91;5095575;28;20341;-80
2023/03/17 10:25:32;;;;;;;;;;;;;;;26.81;15.91;99267.03;5094201;28;20446;-80
2023/03/17 10:27:58;;;;;;;;;;;;;;;26.65;15.63;99246.91;5095137;28;19920;-78
2023/03/17 10:30:24;;;;;;;;;;;;;;;26.41;16.28;99268.91;5094102;28;19916;-80
2023/03/17 10:32:51;;;;;;;;;;;;;;;26.17;16.30;99258.66;5077144;28;19924;-79
2023/03/17 10:35:16;;;;;;;;;;;;;;;25.97;16.43;99255.16;5077091;28;19981;-79
2023/03/17 10:37:42;;;;;;;;;;;;;;;25.75;16.80;99262.50;5077054;28;19920;-79
2023/03/17 10:40:17;;;;;;;;;;;;;;;25.61;16.80;99251.75;5076347;28;19916;-81
2023/03/17 10:42:46;;;;;;;;;;;;;;;25.45;16.96;99255.63;5093852;28;19923;-79
2023/03/17 10:45:28;;;;;;;;;;;;;;;25.12;16.97;99244.78;5076525;28;20015;-82
2023/03/17 10:47:57;;;;;;;;;;;;;;;24.98;17.66;99249.25;5094353;28;19916;-83
2023/03/17 10:50:27;;;;;;;;;;;;;;;24.76;17.82;99253.84;5093574;28;20399;-79
2023/03/17 10:52:56;;;;;;;;;;;;;;;24.52;17.65;99258.59;5076901;28;19985;-79
2023/03/17 10:55:22;;;;;;;;;;;;;;;24.35;17.78;99257.25;5077097;28;19919;-80
2023/03/17 10:57:52;;;;;;;;;;;;;;;24.12;17.90;99242.31;5076513;28;20448;-80
2023/03/17 11:00:21;;;;;;;;;;;;;;;23.88;18.02;99248.88;5076526;28;19966;-80
2023/03/17 11:02:48;;;;;;;;;;;;;;;23.72;18.06;99233.09;5076600;28;19917;-80
2023/03/17 11:05:18;;;;;;;;;;;;;;;23.58;18.52;99234.81;5076669;28;19926;-80
2023/03/17 11:07:44;;;;;;;;;;;;;;;23.53;18.47;99235.38;5094808;28;19916;-81
2023/03/17 11:10:22;;;;;;;;;;;;;;;23.48;18.45;99229.78;5094341;28;19992;-82
2023/03/17 11:13:00;;;;;;;;;;;;;;;23.38;18.64;99234.59;5093198;28;19916;-80
2023/03/17 11:15:28;;;;;;;;;;;;;;;23.25;18.75;99243.25;5076557;28;19916;-79
2023/03/17 11:17:57;;;;;;;;;;;;;;;23.16;18.78;99231.88;5093699;28;19920;-80
2023/03/17 11:20:38;;;;;;;;;;;;;;;23.02;18.96;99222.03;5093172;28;19916;-80
2023/03/17 11:23:11;;;;;;;;;;;;;;;22.81;19.26;99236.94;5076276;28;20379;-80
2023/03/17 11:25:37;;;;;;;;;;;;;;;22.64;19.42;99233.63;5094709;28;20019;-80
2023/03/17 11:28:32;;;;;;;;;;;;;;;22.37;19.58;99241.22;5093174;28;20434;-81
2023/03/17 11:31:14;;;;;;;;;;;;;;;22.10;19.81;99229.31;5012412;28;19917;-81
2023/03/17 11:33:48;;;;;;;;;;;;;;;21.85;20.10;99226.88;4996581;28;19925;-84
2023/03/17 11:36:17;;;;;;;;;;;;;;;21.62;20.56;99228.69;4995870;28;19918;-82
2023/03/17 11:38:48;;;;;;;;;;;;;;;21.31;20.54;99230.31;5012370;28;19918;-84
2023/03/17 11:41:13;;;;;;;;;;;;;;;21.14;20.95;99218.13;4979593;28;19967;-80
2023/03/17 11:43:47;;;;;;;;;;;;;;;20.93;21.14;99226.69;5011891;28;20290;-81
2023/03/17 11:46:23;;;;;;;;;;;;;;;20.64;21.13;99222.81;5011891;28;20404;-84
2023/03/17 11:49:10;;;;;;;;;;;;;;;20.29;21.41;99214.25;5011784;28;19917;-82
2023/03/17 11:51:58;;;;;;;;;;;;;;;20.10;21.47;99210.13;5011931;28;20383;-82
2023/03/17 11:54:30;;;;;;;;;;;;;;;19.89;21.68;99215.91;4934326;29;19962;-83
2023/03/17 11:56:58;;;;;;;;;;;;;;;19.69;22.06;99205.63;4918854;29;19918;-81
2023/03/17 11:59:39;;;;;;;;;;;;;;;19.59;22.12;99220.81;4918381;29;19918;-81
2023/03/17 12:02:05;;;;;;;;;;;;;;;19.51;22.36;99228.75;4918727;29;20362;-82
2023/03/17 12:04:42;;;;;;;;;;;;;;;19.37;22.68;99210.84;4918398;29;19962;-83
2023/03/17 12:07:15;;;;;;;;;;;;;;;19.31;22.75;99229.03;4950010;28;19928;-82
2023/03/17 12:09:46;;;;;;;;;;;;;;;19.19;22.71;99214.44;5011482;28;19961;-83
2023/03/17 12:12:11;;;;;;;;;;;;;;;19.10;22.61;99213.59;5011340;28;19928;-81
2023/03/17 12:14:42;;;;;;;;;;;;;;;19.03;22.63;99215.22;5011260;28;19918;-83
2023/03/17 12:17:25;;;;;;;;;;;;;;;19.03;22.70;99207.28;5011830;28;19971;-83
2023/03/17 12:20:07;;;;;;;;;;;;;;;19.03;22.69;99206.47;4994778;28;20010;-82
2023/03/17 12:22:43;;;;;;;;;;;;;;;18.96;22.55;99207.09;4994966;28;20377;-85
2023/03/17 12:25:08;;;;;;;;;;;;;;;18.91;22.79;99208.56;5011221;28;20004;-82
2023/03/17 12:27:42;;;;;;;;;;;;;;;18.89;22.79;99206.06;5011041;28;20058;-82
2023/03/17 12:30:26;;;;;;;;;;;;;;;18.81;22.97;99220.06;5011473;28;19918;-81
2023/03/17 12:32:57;;;;;;;;;;;;;;;18.78;23.21;99209.78;5093398;28;19942;-81
2023/03/17 12:35:25;;;;;;;;;;;;;;;18.72;23.11;99213.09;5091744;28;19938;-81
2023/03/17 12:37:50;;;;;;;;;;;;;;;18.74;23.23;99216.41;5093756;28;19970;-82
2023/03/17 12:40:20;;;;;;;;;;;;;;;18.75;23.30;99217.22;5074386;28;19955;-81
2023/03/17 12:43:03;;;;;;;;;;;;;;;18.71;23.49;99218.53;5093185;28;20019;-82
2023/03/17 12:45:52;;;;;;;;;;;;;;;18.68;23.56;99229.44;5075020;28;20264;-83
2023/03/17 12:48:30;;;;;;;;;;;;;;;18.72;23.51;99215.75;5093376;28;19920;-80
2023/03/17 12:51:34;;;;;;;;;;;;;;;18.73;23.62;99219.19;5091776;28;19916;-80
2023/03/17 12:54:01;;;;;;;;;;;;;;;18.70;23.85;99222.16;5011699;28;19918;-82